Time;durP1;ratioP1;P1;durP2;ratioP2;P2;SDS_P1;SDS_P2;PMS_P1;PMS_P2;Temp;Humidity;BMP_temperature;BMP_pressure;BME280_temperature;BME280_humidity;BME280_pressure;Samples;Min_cycle;Max_cycle;Signal;HPM_P1;HPM_P2
2022/12/17 13:06:42;;;;;;;11.63;4.45;;;4.00;99.90;;;;;;4968831;28;20097;-62
2022/12/17 13:09:20;;;;;;;6.00;3.10;;;4.10;99.90;;;;;;4969438;28;20082;-60
2022/12/17 13:12:08;;;;;;;6.32;3.47;;;4.00;99.90;;;;;;4969078;28;20145;-61
2022/12/17 13:14:50;;;;;;;10.60;3.60;;;4.00;99.90;;;;;;4959608;28;20049;-61
2022/12/17 13:17:34;;;;;;;9.23;3.10;;;4.00;99.90;;;;;;4967869;28;20090;-60
2022/12/17 13:20:21;;;;;;;12.75;4.05;;;4.00;99.90;;;;;;4968158;28;20047;-60
2022/12/17 13:22:50;;;;;;;9.45;4.07;;;4.00;99.90;;;;;;4969173;28;20054;-61
2022/12/17 13:25:21;;;;;;;12.02;3.85;;;4.00;99.90;;;;;;4967544;28;20573;-61
2022/12/17 13:27:48;;;;;;;17.70;5.20;;;4.00;99.90;;;;;;4967652;28;20047;-61
2022/12/17 13:30:21;;;;;;;9.32;4.55;;;4.00;99.90;;;;;;4957892;28;20057;-60
2022/12/17 13:33:29;;;;;;;11.75;4.32;;;4.00;99.90;;;;;;4968617;28;20054;-61
2022/12/17 13:36:24;;;;;;;11.98;4.68;;;4.00;99.90;;;;;;4964613;28;20046;-61
2022/12/17 13:39:09;;;;;;;12.40;4.07;;;4.00;99.90;;;;;;4960657;28;20055;-61
2022/12/17 13:41:37;;;;;;;8.75;4.30;;;4.00;99.90;;;;;;4964734;28;20495;-61
2022/12/17 13:44:17;;;;;;;10.50;4.00;;;3.90;99.90;;;;;;4961594;28;20553;-61
2022/12/17 13:46:45;;;;;;;13.75;5.18;;;4.30;99.90;;;;;;4966623;28;20061;-62
2022/12/17 13:49:17;;;;;;;12.93;4.68;;;4.00;99.90;;;;;;4968742;28;20108;-60
2022/12/17 13:51:44;;;;;;;13.95;5.53;;;3.90;99.90;;;;;;4968497;28;20046;-60
2022/12/17 13:54:14;;;;;;;13.20;5.47;;;4.00;99.90;;;;;;4967647;28;20506;-61
2022/12/17 13:56:41;;;;;;;7.82;4.30;;;4.00;99.90;;;;;;4955586;28;20044;-61
2022/12/17 13:59:21;;;;;;;9.05;4.07;;;4.00;99.90;;;;;;4959397;28;20059;-61
2022/12/17 14:01:52;;;;;;;20.30;5.38;;;4.00;99.90;;;;;;4960189;28;20046;-60
2022/12/17 14:04:24;;;;;;;7.68;4.90;;;4.00;99.90;;;;;;4958879;28;20329;-62
2022/12/17 14:06:52;;;;;;;9.65;4.75;;;4.00;99.90;;;;;;4963201;28;20046;-62
2022/12/17 14:09:20;;;;;;;8.52;4.68;;;4.00;99.90;;;;;;4958264;28;20829;-62
2022/12/17 14:14:38;;;;;;;10.20;5.93;;;3.90;99.90;;;;;;4966738;28;20578;-62
2022/12/17 14:17:05;;;;;;;13.68;5.90;;;4.00;99.90;;;;;;4963592;28;20059;-62
2022/12/17 14:19:34;;;;;;;12.00;5.70;;;4.00;99.90;;;;;;4967982;28;20138;-60
2022/12/17 14:22:01;;;;;;;13.25;4.93;;;4.00;99.90;;;;;;4956868;28;20062;-61
2022/12/17 14:24:28;;;;;;;12.48;5.28;;;4.10;99.90;;;;;;4960511;28;20043;-61
2022/12/17 14:26:59;;;;;;;9.80;5.90;;;4.00;99.90;;;;;;4960513;28;20055;-62
2022/12/17 14:29:28;;;;;;;13.32;5.38;;;3.90;99.90;;;;;;4978601;28;20051;-61
2022/12/17 14:32:00;;;;;;;12.20;5.00;;;4.00;99.90;;;;;;4969688;28;20125;-57
2022/12/17 14:34:26;;;;;;;16.65;6.28;;;4.00;99.90;;;;;;4967372;28;20055;-61
2022/12/17 14:36:58;;;;;;;15.63;5.63;;;4.00;99.90;;;;;;4966517;28;20058;-61
2022/12/17 14:39:27;;;;;;;15.02;5.35;;;3.90;99.90;;;;;;4966732;28;20046;-61
2022/12/17 14:44:50;;;;;;;8.15;4.90;;;3.90;99.90;;;;;;4960417;28;20138;-61
2022/12/17 14:47:18;;;;;;;10.30;5.35;;;3.90;99.90;;;;;;4957672;28;20055;-61
2022/12/17 14:50:10;;;;;;;13.00;5.70;;;3.90;99.90;;;;;;4952638;28;20495;-61
2022/12/17 14:52:41;;;;;;;13.55;5.70;;;3.90;99.90;;;;;;4932756;28;20213;-60
2022/12/17 14:55:56;;;;;;;9.52;4.93;;;3.90;99.90;;;;;;4959054;28;20058;-62
2022/12/17 14:58:24;;;;;;;13.65;4.93;;;4.00;99.90;;;;;;4947724;28;20483;-71
2022/12/17 15:00:58;;;;;;;13.60;4.68;;;4.00;99.90;;;;;;4960047;28;20518;-61
2022/12/17 15:03:26;;;;;;;9.40;4.47;;;4.00;99.90;;;;;;4958101;28;20494;-62
2022/12/17 15:06:01;;;;;;;14.23;5.93;;;4.00;99.90;;;;;;4958237;28;20051;-61
2022/12/17 15:08:54;;;;;;;;;;;4.00;99.90;;;;;;4958268;28;20054;-62
2022/12/17 15:11:21;;;;;;;13.30;3.72;;;3.90;99.90;;;;;;4965200;28;19926;-62
2022/12/17 15:13:47;;;;;;;8.82;4.35;;;3.90;99.90;;;;;;4957853;28;20589;-62
2022/12/17 15:16:21;;;;;;;9.20;4.55;;;3.90;99.90;;;;;;4957190;28;20510;-62
2022/12/17 15:18:48;;;;;;;9.88;4.03;;;3.90;99.90;;;;;;4966773;28;20050;-61
2022/12/17 15:21:15;;;;;;;9.38;4.13;;;3.90;99.90;;;;;;4967118;28;20501;-61
2022/12/17 15:23:42;;;;;;;7.10;3.78;;;3.80;99.90;;;;;;4966779;28;20043;-62
2022/12/17 15:26:09;;;;;;;6.85;4.13;;;3.80;99.90;;;;;;4965420;28;20058;-62
2022/12/17 15:28:36;;;;;;;12.45;4.65;;;3.80;99.90;;;;;;4965282;28;20498;-62
2022/12/17 15:31:04;;;;;;;8.52;3.67;;;3.80;99.90;;;;;;4961985;28;20054;-61
2022/12/17 15:33:30;;;;;;;7.90;3.55;;;3.80;99.90;;;;;;4967437;28;20495;-60
2022/12/17 15:35:58;;;;;;;9.35;4.05;;;3.80;99.90;;;;;;4966702;28;20086;-61
2022/12/17 15:38:25;;;;;;;5.75;4.03;;;3.70;99.90;;;;;;4963421;28;20101;-61
2022/12/17 15:40:52;;;;;;;4.72;3.42;;;3.60;99.90;;;;;;4964582;28;20051;-61
2022/12/17 15:43:18;;;;;;;10.48;4.72;;;3.60;99.90;;;;;;4967018;28;20050;-62
2022/12/17 15:45:49;;;;;;;9.48;4.43;;;3.60;99.90;;;;;;4966095;28;20046;-61
2022/12/17 15:48:20;;;;;;;9.25;4.07;;;3.60;99.90;;;;;;4967172;28;20059;-61
2022/12/17 15:50:47;;;;;;;12.65;3.50;;;3.50;99.90;;;;;;4966469;28;20042;-60
2022/12/17 15:53:14;;;;;;;9.32;4.28;;;3.50;99.90;;;;;;4966777;28;20050;-62
2022/12/17 15:55:41;;;;;;;7.30;4.35;;;3.40;99.90;;;;;;4964732;28;20046;-62
2022/12/17 15:58:10;;;;;;;8.05;3.45;;;3.40;99.90;;;;;;4965426;28;20055;-60
2022/12/17 16:00:37;;;;;;;9.13;4.03;;;3.30;99.90;;;;;;4967276;28;20051;-61
2022/12/17 16:03:04;;;;;;;8.00;3.78;;;3.30;99.90;;;;;;4954714;28;20091;-61
2022/12/17 16:05:31;;;;;;;7.95;3.95;;;3.20;99.90;;;;;;4952051;28;20570;-62
2022/12/17 16:08:01;;;;;;;8.85;4.90;;;3.20;99.90;;;;;;4955561;28;20227;-62
2022/12/17 16:10:28;;;;;;;8.55;4.40;;;3.20;99.90;;;;;;4959926;28;20047;-63
2022/12/17 16:12:55;;;;;;;9.63;4.68;;;3.10;99.90;;;;;;4959639;28;20510;-61
2022/12/17 16:15:21;;;;;;;7.65;3.35;;;3.10;99.90;;;;;;4955606;28;20067;-61
2022/12/17 16:17:48;;;;;;;11.52;4.03;;;3.00;99.90;;;;;;4958844;28;20049;-61
2022/12/17 16:20:15;;;;;;;10.32;5.35;;;2.90;99.90;;;;;;4957134;28;20283;-61
2022/12/17 16:22:43;;;;;;;9.55;4.30;;;2.90;99.90;;;;;;4958890;28;20124;-61
2022/12/17 16:25:09;;;;;;;17.60;5.93;;;2.90;99.90;;;;;;4956692;28;20062;-61
2022/12/17 16:27:36;;;;;;;9.95;4.13;;;2.80;99.90;;;;;;4958858;28;20062;-62
2022/12/17 16:30:04;;;;;;;9.48;3.75;;;2.80;99.90;;;;;;4970034;28;20055;-61
2022/12/17 16:32:32;;;;;;;8.10;3.65;;;2.80;99.90;;;;;;4960496;28;20104;-62
2022/12/17 16:35:03;;;;;;;8.38;3.70;;;2.80;99.90;;;;;;4960945;28;20145;-60
2022/12/17 16:37:30;;;;;;;7.47;3.92;;;2.70;99.90;;;;;;4959858;28;20065;-60
2022/12/17 16:39:57;;;;;;;11.82;5.60;;;2.70;99.90;;;;;;4958854;28;20051;-61
2022/12/17 16:42:26;;;;;;;8.52;4.43;;;2.70;99.90;;;;;;4961477;28;20042;-58
2022/12/17 16:44:53;;;;;;;9.00;4.25;;;2.70;99.90;;;;;;4950574;28;20047;-61
2022/12/17 16:47:20;;;;;;;8.18;4.30;;;2.60;99.90;;;;;;4954945;28;20047;-60
2022/12/17 16:49:49;;;;;;;13.60;4.20;;;2.60;99.90;;;;;;4960727;28;20042;-61
2022/12/17 16:52:15;;;;;;;5.35;3.08;;;2.50;99.90;;;;;;4966350;28;20121;-60
2022/12/17 16:54:42;;;;;;;8.77;5.05;;;2.50;99.90;;;;;;4964243;28;20055;-61
2022/12/17 16:57:09;;;;;;;6.53;3.95;;;2.40;99.90;;;;;;4964429;28;20046;-61
2022/12/17 16:59:36;;;;;;;6.95;3.75;;;2.40;99.90;;;;;;4956685;28;20051;-61
2022/12/17 17:02:02;;;;;;;10.65;4.85;;;2.30;99.90;;;;;;4958215;28;20051;-61
2022/12/17 17:04:29;;;;;;;8.38;4.75;;;2.30;99.90;;;;;;4958550;28;20043;-61
2022/12/17 17:06:56;;;;;;;9.68;4.47;;;2.20;99.90;;;;;;4964191;28;20051;-62
2022/12/17 17:09:23;;;;;;;9.45;5.20;;;2.10;99.90;;;;;;4961909;28;20055;-62
2022/12/17 17:11:50;;;;;;;8.43;4.82;;;2.00;99.90;;;;;;4963525;28;20053;-62
2022/12/17 17:14:18;;;;;;;13.55;4.53;;;1.90;99.90;;;;;;4957175;28;20729;-62
2022/12/17 17:16:45;;;;;;;9.35;4.70;;;1.90;99.90;;;;;;4949003;28;20111;-63
2022/12/17 17:19:12;;;;;;;12.80;6.03;;;1.90;99.90;;;;;;4977472;28;20425;-62
2022/12/17 17:21:40;;;;;;;11.70;6.15;;;1.80;99.90;;;;;;4976312;28;20055;-63
2022/12/17 17:24:13;;;;;;;18.50;6.93;;;1.80;99.90;;;;;;4954815;28;20058;-62
2022/12/17 17:26:47;;;;;;;15.65;8.77;;;1.70;99.90;;;;;;4955347;28;20064;-63
2022/12/17 17:29:14;;;;;;;18.85;8.57;;;1.70;99.90;;;;;;4954319;28;20043;-63
2022/12/17 17:31:40;;;;;;;23.13;10.55;;;1.60;99.90;;;;;;4949155;28;20055;-62
2022/12/17 17:34:27;;;;;;;17.73;7.78;;;1.60;99.90;;;;;;4962577;28;20061;-62
2022/12/17 17:36:54;;;;;;;18.60;9.65;;;1.60;99.90;;;;;;4951416;28;20046;-62
2022/12/17 17:39:21;;;;;;;19.88;8.13;;;1.60;99.90;;;;;;4957460;28;20051;-61
2022/12/17 17:41:47;;;;;;;18.23;8.63;;;1.50;99.90;;;;;;4957990;28;20436;-63
2022/12/17 17:44:15;;;;;;;18.55;7.70;;;1.50;99.90;;;;;;4962818;28;20090;-63
2022/12/17 17:46:42;;;;;;;17.77;7.85;;;1.50;99.90;;;;;;4959388;28;20043;-63
2022/12/17 17:49:09;;;;;;;14.05;6.68;;;1.50;99.90;;;;;;4963725;28;20541;-62
2022/12/17 17:51:37;;;;;;;17.35;7.28;;;1.40;99.90;;;;;;4961216;28;20486;-63
2022/12/17 17:54:24;;;;;;;22.05;7.65;;;1.40;99.90;;;;;;4971569;28;20134;-63
2022/12/17 17:56:51;;;;;;;19.50;8.00;;;1.30;99.90;;;;;;4959693;28;20051;-63
2022/12/17 17:59:18;;;;;;;17.77;6.65;;;1.30;99.90;;;;;;4956282;28;20047;-63
2022/12/17 18:01:49;;;;;;;13.05;6.00;;;1.30;99.90;;;;;;4958355;28;20055;-63
2022/12/17 18:04:18;;;;;;;16.05;6.82;;;1.30;99.90;;;;;;4960015;28;20119;-62
2022/12/17 18:06:45;;;;;;;19.83;6.50;;;1.20;99.90;;;;;;4970963;28;20603;-62
2022/12/17 18:09:32;;;;;;;25.77;10.32;;;1.20;99.90;;;;;;4968182;28;20485;-62
2022/12/17 18:13:53;;;;;;;16.70;7.45;;;1.20;99.90;;;;;;4961107;28;20082;-62
2022/12/17 18:14:45;;;;;;;17.58;8.15;;;1.10;99.90;;;;;;4960564;28;20047;-62
2022/12/17 18:17:32;;;;;;;17.48;7.10;;;1.00;99.90;;;;;;4963475;28;20066;-63
2022/12/17 18:19:59;;;;;;;13.25;5.95;;;1.00;99.90;;;;;;4966672;28;20057;-61
2022/12/17 18:22:27;;;;;;;10.45;6.15;;;1.00;99.90;;;;;;4951435;28;20050;-62
2022/12/17 18:24:53;;;;;;;12.77;6.50;;;0.90;99.90;;;;;;4954659;28;20047;-62
2022/12/17 18:27:20;;;;;;;16.70;6.50;;;0.80;99.90;;;;;;4954840;28;20059;-61
2022/12/17 18:29:47;;;;;;;14.32;6.95;;;0.80;99.90;;;;;;4957069;28;20176;-62
2022/12/17 18:32:14;;;;;;;12.60;6.82;;;0.80;99.90;;;;;;4955095;28;20125;-63
2022/12/17 18:34:41;;;;;;;14.65;6.55;;;0.90;99.90;;;;;;4955409;28;20039;-63
2022/12/17 18:37:08;;;;;;;10.65;5.43;;;0.70;99.90;;;;;;4957958;28;20131;-62
2022/12/17 18:39:35;;;;;;;13.27;6.75;;;0.80;99.90;;;;;;4954566;28;20043;-62
2022/12/17 18:44:47;;;;;;;14.18;6.57;;;0.80;99.90;;;;;;4966595;28;20152;-62
2022/12/17 18:47:13;;;;;;;11.57;6.28;;;0.80;99.90;;;;;;4962208;28;20388;-62
2022/12/17 18:49:40;;;;;;;14.05;6.85;;;0.80;99.90;;;;;;4959052;28;20058;-62
2022/12/17 18:52:07;;;;;;;12.43;5.38;;;0.70;99.90;;;;;;4956962;28;20054;-63
2022/12/17 18:54:41;;;;;;;12.85;5.72;;;0.70;99.90;;;;;;4962584;28;20102;-62
2022/12/17 18:57:08;;;;;;;16.67;6.55;;;0.60;99.90;;;;;;4963895;28;20047;-62
2022/12/17 18:59:36;;;;;;;11.43;6.30;;;0.60;99.90;;;;;;4959047;28;20043;-62
2022/12/17 19:02:03;;;;;;;16.98;7.32;;;0.50;99.90;;;;;;4963612;28;20482;-62
2022/12/17 19:04:31;;;;;;;17.65;6.70;;;0.50;99.90;;;;;;4959462;28;20527;-61
2022/12/17 19:06:58;;;;;;;11.90;6.43;;;0.40;99.90;;;;;;4960474;28;20105;-61
2022/12/17 19:09:30;;;;;;;17.83;7.65;;;0.40;99.90;;;;;;4960673;28;20050;-61
2022/12/17 19:11:56;;;;;;;14.20;6.78;;;0.30;99.90;;;;;;4960545;28;20066;-60
2022/12/17 19:14:24;;;;;;;13.98;7.30;;;0.30;99.90;;;;;;4960036;28;20324;-61
2022/12/17 19:16:52;;;;;;;17.13;7.15;;;0.20;99.90;;;;;;4957110;28;20047;-63
2022/12/17 19:19:19;;;;;;;22.85;10.85;;;0.20;99.90;;;;;;4950653;28;20047;-61
2022/12/17 19:21:46;;;;;;;18.73;7.65;;;0.20;99.90;;;;;;4952678;28;20057;-62
2022/12/17 19:24:14;;;;;;;16.88;7.22;;;0.20;99.90;;;;;;4953027;28;20441;-62
2022/12/17 19:26:41;;;;;;;18.35;7.90;;;0.20;99.90;;;;;;4953279;28;20039;-61
2022/12/17 19:29:10;;;;;;;13.15;6.55;;;0.20;99.90;;;;;;4952381;28;20058;-62
2022/12/17 19:31:37;;;;;;;14.32;7.90;;;0.20;99.90;;;;;;4952735;28;20168;-62
2022/12/17 19:34:05;;;;;;;11.90;6.60;;;0.20;99.90;;;;;;4972305;28;20413;-62
2022/12/17 19:36:34;;;;;;;18.17;8.60;;;0.20;99.90;;;;;;4956872;28;20043;-62
2022/12/17 19:39:02;;;;;;;16.52;8.57;;;0.20;99.90;;;;;;4962505;28;20078;-62
2022/12/17 19:41:31;;;;;;;20.30;8.85;;;0.20;99.90;;;;;;4959955;28;20053;-62
2022/12/17 19:44:00;;;;;;;15.52;7.95;;;0.20;99.90;;;;;;4959108;28;20051;-62
2022/12/17 19:46:28;;;;;;;14.45;6.90;;;0.20;99.90;;;;;;4965655;28;20503;-61
2022/12/17 19:48:58;;;;;;;20.67;9.50;;;0.40;99.90;;;;;;4960864;28;20047;-61
2022/12/17 19:51:26;;;;;;;18.50;8.65;;;0.20;99.90;;;;;;4957769;28;20146;-62
2022/12/17 19:53:53;;;;;;;17.83;8.98;;;0.20;99.90;;;;;;4957713;28;20057;-63
2022/12/17 19:56:20;;;;;;;21.38;9.88;;;0.10;99.90;;;;;;4957627;28;20062;-62
2022/12/17 19:58:51;;;;;;;17.55;8.85;;;0.10;99.90;;;;;;4956429;28;20050;-61
2022/12/17 20:01:41;;;;;;;19.20;9.45;;;0.10;99.90;;;;;;4956867;28;20057;-62
2022/12/17 20:04:10;;;;;;;20.10;8.82;;;0.10;99.90;;;;;;4957883;28;20414;-62
2022/12/17 20:06:37;;;;;;;20.88;9.45;;;0.00;99.90;;;;;;4946111;28;20066;-63
2022/12/17 20:09:04;;;;;;;30.65;14.20;;;-0.10;99.90;;;;;;4959287;28;20073;-61
2022/12/17 20:11:34;;;;;;;43.42;16.90;;;-0.20;99.90;;;;;;4958196;28;20078;-61
2022/12/17 20:14:01;;;;;;;36.72;16.17;;;-0.20;99.90;;;;;;4959292;28;20487;-61
2022/12/17 20:16:29;;;;;;;32.40;15.15;;;-0.10;99.90;;;;;;4960452;28;20051;-65
2022/12/17 20:18:58;;;;;;;30.27;15.23;;;-0.10;99.90;;;;;;4965204;28;20082;-66
2022/12/17 20:21:25;;;;;;;33.45;13.93;;;0.00;99.90;;;;;;4964548;28;20050;-62
2022/12/17 20:23:51;;;;;;;34.45;15.90;;;0.00;99.90;;;;;;4965995;28;20050;-61
2022/12/17 20:26:18;;;;;;;34.85;15.50;;;0.00;99.90;;;;;;4956076;28;20047;-62
2022/12/17 20:28:45;;;;;;;34.20;15.95;;;0.10;99.90;;;;;;4965042;28;20057;-62
2022/12/17 20:31:12;;;;;;;37.40;16.48;;;0.10;99.90;;;;;;4958100;28;20047;-62
2022/12/17 20:33:43;;;;;;;32.92;15.10;;;0.10;99.90;;;;;;4958440;28;20055;-62
2022/12/17 20:36:14;;;;;;;36.50;16.08;;;0.10;99.90;;;;;;4956500;28;20051;-62
2022/12/17 20:38:44;;;;;;;35.63;16.02;;;0.10;99.90;;;;;;4955274;28;20067;-64
2022/12/17 20:41:24;;;;;;;36.53;16.25;;;0.20;99.90;;;;;;4959575;28;20047;-62
2022/12/17 20:43:52;;;;;;;40.40;15.02;;;0.20;99.90;;;;;;4957097;28;20059;-62
2022/12/17 20:46:19;;;;;;;42.55;18.10;;;0.30;99.90;;;;;;4957894;28;20057;-62
2022/12/17 20:48:47;;;;;;;38.42;17.00;;;0.50;99.90;;;;;;4955337;28;20098;-63
2022/12/17 20:51:16;;;;;;;36.75;16.80;;;0.30;99.90;;;;;;4960155;28;20502;-62
2022/12/17 20:53:43;;;;;;;40.45;19.13;;;0.30;99.90;;;;;;4958474;28;20047;-62
2022/12/17 20:56:12;;;;;;;40.67;18.42;;;0.40;99.90;;;;;;4956135;28;20083;-64
2022/12/17 20:58:40;;;;;;;40.83;17.17;;;0.40;99.90;;;;;;4957373;28;20549;-63
2022/12/17 21:01:09;;;;;;;46.05;20.13;;;0.30;99.90;;;;;;4960207;28;20054;-63
2022/12/17 21:03:36;;;;;;;41.88;17.67;;;0.30;99.90;;;;;;4956447;28;20455;-61
2022/12/17 21:06:08;;;;;;;40.53;20.23;;;0.30;99.90;;;;;;4957352;28;20134;-62
2022/12/17 21:08:36;;;;;;;41.38;18.98;;;0.30;99.90;;;;;;4957659;28;20050;-62
2022/12/17 21:11:03;;;;;;;42.55;19.17;;;0.30;99.90;;;;;;4963244;28;20141;-62
2022/12/17 21:13:30;;;;;;;37.05;17.00;;;0.30;99.90;;;;;;4962106;28;20053;-63
2022/12/17 21:16:02;;;;;;;45.88;19.75;;;0.40;99.90;;;;;;4969389;28;20698;-62
2022/12/17 21:18:29;;;;;;;38.97;18.38;;;0.50;99.90;;;;;;4968391;28;20138;-62
2022/12/17 21:20:58;;;;;;;46.20;19.55;;;0.40;99.90;;;;;;4969691;28;20051;-62
2022/12/17 21:23:25;;;;;;;35.47;17.05;;;0.40;99.90;;;;;;4962175;28;20046;-63
2022/12/17 21:26:08;;;;;;;37.17;17.52;;;0.40;99.90;;;;;;4970003;28;20085;-62
2022/12/17 21:28:36;;;;;;;43.70;17.45;;;0.40;99.90;;;;;;4967026;28;20101;-63
2022/12/17 21:31:14;;;;;;;41.50;18.13;;;0.30;99.90;;;;;;4958306;28;20058;-63
2022/12/17 21:33:45;;;;;;;42.28;17.52;;;0.30;99.90;;;;;;4959886;28;20655;-62
2022/12/17 21:36:12;;;;;;;43.88;18.80;;;0.30;99.90;;;;;;4963129;28;20134;-61
2022/12/17 21:38:39;;;;;;;39.53;16.70;;;0.40;99.90;;;;;;4963654;28;20490;-62
2022/12/17 21:41:14;;;;;;;40.75;19.00;;;0.30;99.90;;;;;;4957632;28;20081;-62
2022/12/17 21:43:43;;;;;;;41.72;18.35;;;0.40;99.90;;;;;;4970010;28;20050;-62
2022/12/17 21:46:10;;;;;;;41.72;18.63;;;0.30;99.90;;;;;;4965665;28;20435;-62
2022/12/17 21:48:40;;;;;;;40.40;18.10;;;0.40;99.90;;;;;;4963595;28;20058;-63
2022/12/17 21:51:09;;;;;;;40.95;17.38;;;0.40;99.90;;;;;;4961929;28;20046;-63
2022/12/17 21:53:40;;;;;;;44.17;18.05;;;0.30;99.90;;;;;;4968320;28;20058;-62
2022/12/17 21:56:15;;;;;;;39.90;17.33;;;0.30;99.90;;;;;;4969823;28;20444;-62
2022/12/17 21:58:43;;;;;;;45.22;19.70;;;0.30;99.90;;;;;;4969560;28;20057;-64
2022/12/17 22:01:16;;;;;;;47.22;19.83;;;0.20;99.90;;;;;;4969930;28;20055;-61
2022/12/17 22:03:45;;;;;;;44.25;20.00;;;0.30;99.90;;;;;;4969494;28;20058;-63
2022/12/17 22:06:15;;;;;;;42.35;19.63;;;0.30;99.90;;;;;;4968669;28;20141;-61
2022/12/17 22:08:42;;;;;;;45.90;20.90;;;0.20;99.90;;;;;;4963198;28;20142;-61
2022/12/17 22:11:14;;;;;;;42.00;18.35;;;0.80;99.90;;;;;;4968606;28;20748;-62
2022/12/17 22:16:40;;;;;;;45.05;20.70;;;0.10;99.90;;;;;;4950210;28;20086;-62
2022/12/17 22:19:12;;;;;;;34.45;17.77;;;0.10;99.90;;;;;;4967548;28;20149;-62
2022/12/17 22:21:41;;;;;;;40.08;17.23;;;0.00;99.90;;;;;;4969825;28;20054;-62
2022/12/17 22:24:18;;;;;;;42.97;17.90;;;0.00;99.90;;;;;;4969259;28;20057;-62
2022/12/17 22:26:45;;;;;;;41.42;18.33;;;0.00;99.90;;;;;;4969645;28;20061;-61
2022/12/17 22:32:58;;;;;;;40.40;18.38;;;-0.10;99.90;;;;;;4967296;28;20462;-63
2022/12/17 22:33:01;;;;;;;46.30;20.38;;;-0.10;99.90;;;;;;4968199;28;20732;-61
2022/12/17 22:34:57;;;;;;;38.75;17.60;;;-0.10;99.90;;;;;;4960896;28;20055;-64
2022/12/17 22:37:44;;;;;;;46.20;19.58;;;-0.10;99.90;;;;;;4969575;28;20134;-61
2022/12/17 22:40:41;;;;;;;40.03;19.52;;;-0.10;99.90;;;;;;4967284;28;20372;-62
2022/12/17 22:43:30;;;;;;;42.15;18.38;;;-0.20;99.90;;;;;;4968803;28;20050;-63
2022/12/17 22:46:18;;;;;;;41.75;18.05;;;-0.20;99.90;;;;;;4961295;28;20054;-62
2022/12/17 22:48:49;;;;;;;45.25;19.33;;;-0.30;99.90;;;;;;4968519;28;20053;-63
2022/12/17 22:51:16;;;;;;;43.28;16.92;;;-0.40;99.90;;;;;;4969154;28;20097;-61
2022/12/17 22:53:59;;;;;;;43.58;18.55;;;-0.30;99.90;;;;;;4617786;28;9999887;-62
2022/12/17 22:56:26;;;;;;;42.42;19.02;;;-0.30;99.90;;;;;;4967475;28;20061;-62
2022/12/17 22:59:16;;;;;;;41.20;18.52;;;-0.20;99.90;;;;;;4960662;28;20056;-62
2022/12/17 23:01:43;;;;;;;38.65;17.75;;;-0.10;99.90;;;;;;4962288;28;20043;-61
2022/12/17 23:04:14;;;;;;;33.88;17.38;;;-0.20;99.90;;;;;;4958940;28;20525;-61
2022/12/17 23:06:43;;;;;;;43.47;19.38;;;-0.20;99.90;;;;;;4960711;28;20043;-62
2022/12/17 23:09:12;;;;;;;43.03;18.77;;;-0.20;99.90;;;;;;4977183;28;20077;-61
2022/12/17 23:11:39;;;;;;;41.78;17.55;;;-0.20;99.90;;;;;;4967002;28;20049;-62
2022/12/17 23:14:06;;;;;;;40.78;17.65;;;-0.20;99.90;;;;;;4964210;28;20139;-64
2022/12/17 23:16:33;;;;;;;49.90;20.25;;;-0.10;99.90;;;;;;4959548;28;20074;-61
2022/12/17 23:19:00;;;;;;;47.42;16.90;;;-0.10;99.90;;;;;;4967410;28;20101;-62
2022/12/17 23:21:27;;;;;;;46.88;18.45;;;-0.10;99.90;;;;;;4968097;28;20053;-62
2022/12/17 23:23:55;;;;;;;38.40;16.90;;;0.00;99.90;;;;;;4959793;28;20058;-61
2022/12/17 23:26:29;;;;;;;38.42;19.42;;;0.10;99.90;;;;;;4958425;28;20427;-61
2022/12/17 23:28:58;;;;;;;36.80;17.45;;;0.10;99.90;;;;;;4959944;28;20050;-63
2022/12/17 23:31:25;;;;;;;40.42;18.42;;;0.10;99.90;;;;;;4963225;28;20435;-61
2022/12/17 23:33:52;;;;;;;35.63;16.98;;;-0.10;99.90;;;;;;4967703;28;20118;-63
2022/12/17 23:36:20;;;;;;;40.60;18.05;;;0.00;99.90;;;;;;4967726;28;20043;-61
2022/12/17 23:38:47;;;;;;;39.70;17.77;;;0.10;99.90;;;;;;4967938;28;20189;-61
2022/12/17 23:41:16;;;;;;;34.83;17.42;;;0.10;99.90;;;;;;4966637;28;20046;-62
2022/12/17 23:43:43;;;;;;;41.35;16.38;;;0.00;99.90;;;;;;4966908;28;20137;-62
2022/12/17 23:46:09;;;;;;;36.55;16.95;;;0.00;99.90;;;;;;4967830;28;20069;-62
2022/12/17 23:48:38;;;;;;;36.20;16.88;;;0.00;99.90;;;;;;4966934;28;20050;-61
2022/12/17 23:51:12;;;;;;;39.90;16.05;;;0.00;99.90;;;;;;4962943;28;20412;-61
2022/12/17 23:53:39;;;;;;;32.05;15.25;;;0.00;99.90;;;;;;4968234;28;20496;-62
2022/12/17 23:56:07;;;;;;;38.65;18.23;;;-0.10;99.90;;;;;;4962241;28;20538;-62
2022/12/17 23:58:35;;;;;;;38.08;18.33;;;0.00;99.90;;;;;;4961141;28;20046;-62
